Skip Navigation Links Skip Navigation Links

Current Weather

Archangel'Sk, Archangel, Russia

For information only: do not use for flight planning or navigation.
Latest weather
Observation time Saturday, July 20, 2019 7:00 PM MSK
Local time Saturday, July 20, 2019 7:35 PM MSK
Flight conditions Visual Meteorological Conditions
Winds
Wind direction Northeast (50°)
Winds variable from 10° to 90°
Wind speed 7 mph
Visibility 6.2 mi.
Sky condition
Ceiling 3,000 ft. broken clouds
Cloud layer broken clouds 3,000 ft.
Temperature 64°F
Dewpoint 48°F
Altimeter 29.88 in.Hg
Precipitation
QF 7:38 AM
Derived measurements
Relative humidity 56%
Density altitude 585 ft.
Remarks
No significant changes expected in the next two hours.
METAR ULAA 201600Z 05003MPS 010V090 9999 BKN030 18/09 Q1012 R26/CLRD68 NOSIG RMK QFE758/1010

Settings

Location code

InnerDrive.Weather 4.0.6770.0 Release CLR 4.0.30319.42000
Copyright ©2018 Inner Drive Technology. All rights reserved. Portions Copyright ©1986-2018 David Braverman.

Find weather

Site navigation


Skip Navigation Links

Place info

Page info

PayPal - The safer, easier way to pay online!

Return home.

Copyright ©2019 Inner Drive Technology. Purveyors of fine, hand-crafted computer software. Page printed 2019-07-20T16:35:21 UTC.